sensor_id;sensor_type;location;lat;lon;timestamp;P1;durP1;ratioP1;P2;durP2;ratioP2
72601;SDS011;60644;55.858;37.390;2023-02-27T00:02:02;5.97;;;1.60;;
72601;SDS011;60644;55.858;37.390;2023-02-27T00:04:29;5.60;;;1.42;;
72601;SDS011;60644;55.858;37.390;2023-02-27T00:06:55;5.55;;;1.60;;
72601;SDS011;60644;55.858;37.390;2023-02-27T00:09:21;6.13;;;1.52;;
72601;SDS011;60644;55.858;37.390;2023-02-27T00:11:47;5.13;;;1.25;;
72601;SDS011;60644;55.858;37.390;2023-02-27T00:14:13;5.93;;;1.20;;
72601;SDS011;60644;55.858;37.390;2023-02-27T00:16:39;5.40;;;1.45;;
72601;SDS011;60644;55.858;37.390;2023-02-27T00:19:05;5.65;;;1.17;;
72601;SDS011;60644;55.858;37.390;2023-02-27T00:21:31;6.32;;;1.13;;
72601;SDS011;60644;55.858;37.390;2023-02-27T00:23:57;4.63;;;1.17;;
72601;SDS011;60644;55.858;37.390;2023-02-27T00:26:23;4.68;;;1.23;;
72601;SDS011;60644;55.858;37.390;2023-02-27T00:28:49;5.47;;;1.27;;
72601;SDS011;60644;55.858;37.390;2023-02-27T00:31:15;7.15;;;2.00;;
72601;SDS011;60644;55.858;37.390;2023-02-27T00:33:40;5.77;;;1.80;;
72601;SDS011;60644;55.858;37.390;2023-02-27T00:36:07;4.32;;;1.10;;
72601;SDS011;60644;55.858;37.390;2023-02-27T00:38:33;5.43;;;1.23;;
72601;SDS011;60644;55.858;37.390;2023-02-27T00:40:59;4.40;;;1.10;;
72601;SDS011;60644;55.858;37.390;2023-02-27T00:43:25;6.63;;;2.10;;
72601;SDS011;60644;55.858;37.390;2023-02-27T00:45:51;4.63;;;1.15;;
72601;SDS011;60644;55.858;37.390;2023-02-27T00:48:16;5.33;;;1.17;;
72601;SDS011;60644;55.858;37.390;2023-02-27T00:50:42;5.55;;;1.45;;
72601;SDS011;60644;55.858;37.390;2023-02-27T00:53:08;5.45;;;1.50;;
72601;SDS011;60644;55.858;37.390;2023-02-27T00:55:34;9.63;;;2.10;;
72601;SDS011;60644;55.858;37.390;2023-02-27T00:58:00;5.43;;;1.30;;
72601;SDS011;60644;55.858;37.390;2023-02-27T01:00:26;5.32;;;1.55;;
72601;SDS011;60644;55.858;37.390;2023-02-27T01:02:52;4.13;;;1.08;;
72601;SDS011;60644;55.858;37.390;2023-02-27T01:05:18;6.13;;;1.45;;
72601;SDS011;60644;55.858;37.390;2023-02-27T01:07:44;6.53;;;1.65;;
72601;SDS011;60644;55.858;37.390;2023-02-27T01:10:10;5.27;;;1.20;;
72601;SDS011;60644;55.858;37.390;2023-02-27T01:12:38;6.47;;;1.52;;
72601;SDS011;60644;55.858;37.390;2023-02-27T01:15:04;6.03;;;1.48;;
72601;SDS011;60644;55.858;37.390;2023-02-27T01:17:31;6.55;;;1.90;;
72601;SDS011;60644;55.858;37.390;2023-02-27T01:19:58;6.43;;;1.60;;
72601;SDS011;60644;55.858;37.390;2023-02-27T01:22:23;5.80;;;1.77;;
72601;SDS011;60644;55.858;37.390;2023-02-27T01:24:50;5.18;;;1.50;;
72601;SDS011;60644;55.858;37.390;2023-02-27T01:27:15;6.75;;;2.78;;
72601;SDS011;60644;55.858;37.390;2023-02-27T01:29:41;6.43;;;1.73;;
72601;SDS011;60644;55.858;37.390;2023-02-27T01:32:07;4.80;;;1.27;;
72601;SDS011;60644;55.858;37.390;2023-02-27T01:34:33;6.35;;;1.60;;
72601;SDS011;60644;55.858;37.390;2023-02-27T01:37:01;5.93;;;1.30;;
72601;SDS011;60644;55.858;37.390;2023-02-27T01:39:27;7.53;;;2.00;;
72601;SDS011;60644;55.858;37.390;2023-02-27T01:41:53;6.45;;;1.98;;
72601;SDS011;60644;55.858;37.390;2023-02-27T01:44:20;7.70;;;1.92;;
72601;SDS011;60644;55.858;37.390;2023-02-27T01:46:45;5.63;;;1.53;;
72601;SDS011;60644;55.858;37.390;2023-02-27T01:51:57;6.53;;;1.90;;
72601;SDS011;60644;55.858;37.390;2023-02-27T01:54:28;5.13;;;1.38;;
72601;SDS011;60644;55.858;37.390;2023-02-27T01:57:02;6.30;;;1.73;;
72601;SDS011;60644;55.858;37.390;2023-02-27T01:59:32;6.45;;;1.58;;
72601;SDS011;60644;55.858;37.390;2023-02-27T02:02:03;6.82;;;1.80;;
72601;SDS011;60644;55.858;37.390;2023-02-27T02:04:37;6.77;;;1.93;;
72601;SDS011;60644;55.858;37.390;2023-02-27T02:07:09;7.10;;;2.40;;
72601;SDS011;60644;55.858;37.390;2023-02-27T02:09:45;6.55;;;1.85;;
72601;SDS011;60644;55.858;37.390;2023-02-27T02:12:16;7.65;;;1.83;;
72601;SDS011;60644;55.858;37.390;2023-02-27T02:14:45;6.07;;;1.85;;
72601;SDS011;60644;55.858;37.390;2023-02-27T02:17:17;5.53;;;1.83;;
72601;SDS011;60644;55.858;37.390;2023-02-27T02:20:25;7.28;;;2.20;;
72601;SDS011;60644;55.858;37.390;2023-02-27T02:42:33;6.25;;;1.40;;
72601;SDS011;60644;55.858;37.390;2023-02-27T02:50:34;6.38;;;1.88;;
72601;SDS011;60644;55.858;37.390;2023-02-27T02:56:05;5.57;;;1.52;;
72601;SDS011;60644;55.858;37.390;2023-02-27T03:07:10;5.00;;;1.65;;
72601;SDS011;60644;55.858;37.390;2023-02-27T03:12:57;4.80;;;1.47;;
72601;SDS011;60644;55.858;37.390;2023-02-27T03:15:37;7.55;;;2.10;;
72601;SDS011;60644;55.858;37.390;2023-02-27T03:18:27;7.38;;;2.22;;
72601;SDS011;60644;55.858;37.390;2023-02-27T03:21:01;6.30;;;1.60;;
72601;SDS011;60644;55.858;37.390;2023-02-27T03:23:37;6.18;;;1.65;;
72601;SDS011;60644;55.858;37.390;2023-02-27T03:26:10;6.50;;;2.00;;
72601;SDS011;60644;55.858;37.390;2023-02-27T03:28:42;7.72;;;2.03;;
72601;SDS011;60644;55.858;37.390;2023-02-27T03:34:26;6.68;;;1.63;;
72601;SDS011;60644;55.858;37.390;2023-02-27T03:43:11;6.18;;;1.90;;
72601;SDS011;60644;55.858;37.390;2023-02-27T03:45:54;7.07;;;2.30;;
72601;SDS011;60644;55.858;37.390;2023-02-27T03:48:40;5.20;;;1.50;;
72601;SDS011;60644;55.858;37.390;2023-02-27T03:51:10;6.63;;;2.17;;
72601;SDS011;60644;55.858;37.390;2023-02-27T03:56:24;7.40;;;2.28;;
72601;SDS011;60644;55.858;37.390;2023-02-27T03:59:07;6.03;;;1.73;;
72601;SDS011;60644;55.858;37.390;2023-02-27T04:01:36;6.88;;;2.25;;
72601;SDS011;60644;55.858;37.390;2023-02-27T04:04:04;6.95;;;2.50;;
72601;SDS011;60644;55.858;37.390;2023-02-27T04:06:57;7.30;;;2.40;;
72601;SDS011;60644;55.858;37.390;2023-02-27T04:23:18;9.98;;;2.40;;
72601;SDS011;60644;55.858;37.390;2023-02-27T04:26:20;7.50;;;2.30;;
72601;SDS011;60644;55.858;37.390;2023-02-27T04:29:13;7.70;;;1.92;;
72601;SDS011;60644;55.858;37.390;2023-02-27T04:31:58;6.80;;;2.13;;
72601;SDS011;60644;55.858;37.390;2023-02-27T04:34:45;6.07;;;1.73;;
72601;SDS011;60644;55.858;37.390;2023-02-27T04:37:22;7.68;;;1.98;;
72601;SDS011;60644;55.858;37.390;2023-02-27T04:39:55;6.55;;;2.13;;
72601;SDS011;60644;55.858;37.390;2023-02-27T04:42:41;5.38;;;1.42;;
72601;SDS011;60644;55.858;37.390;2023-02-27T04:45:13;7.72;;;2.00;;
72601;SDS011;60644;55.858;37.390;2023-02-27T04:47:46;6.73;;;2.00;;
72601;SDS011;60644;55.858;37.390;2023-02-27T04:50:17;9.32;;;2.17;;
72601;SDS011;60644;55.858;37.390;2023-02-27T04:52:51;8.27;;;2.33;;
72601;SDS011;60644;55.858;37.390;2023-02-27T04:55:29;6.03;;;1.95;;
72601;SDS011;60644;55.858;37.390;2023-02-27T04:58:00;7.75;;;2.72;;
72601;SDS011;60644;55.858;37.390;2023-02-27T05:00:29;7.40;;;2.70;;
72601;SDS011;60644;55.858;37.390;2023-02-27T05:03:20;7.25;;;2.50;;
72601;SDS011;60644;55.858;37.390;2023-02-27T05:05:49;6.38;;;1.85;;
72601;SDS011;60644;55.858;37.390;2023-02-27T05:11:03;7.30;;;2.58;;
72601;SDS011;60644;55.858;37.390;2023-02-27T05:13:40;7.67;;;2.57;;
72601;SDS011;60644;55.858;37.390;2023-02-27T05:18:53;7.80;;;2.42;;
72601;SDS011;60644;55.858;37.390;2023-02-27T05:23:58;8.68;;;2.97;;
72601;SDS011;60644;55.858;37.390;2023-02-27T05:26:45;7.47;;;2.60;;
72601;SDS011;60644;55.858;37.390;2023-02-27T05:29:47;6.95;;;1.90;;
72601;SDS011;60644;55.858;37.390;2023-02-27T05:35:19;6.80;;;2.25;;
72601;SDS011;60644;55.858;37.390;2023-02-27T05:40:24;6.43;;;1.70;;
72601;SDS011;60644;55.858;37.390;2023-02-27T05:42:57;6.78;;;2.10;;
72601;SDS011;60644;55.858;37.390;2023-02-27T05:45:29;7.10;;;2.33;;
72601;SDS011;60644;55.858;37.390;2023-02-27T05:48:03;6.70;;;2.20;;
72601;SDS011;60644;55.858;37.390;2023-02-27T05:50:37;6.43;;;2.00;;
72601;SDS011;60644;55.858;37.390;2023-02-27T05:53:08;8.25;;;2.42;;
72601;SDS011;60644;55.858;37.390;2023-02-27T05:55:40;5.35;;;1.55;;
72601;SDS011;60644;55.858;37.390;2023-02-27T05:58:21;7.00;;;2.47;;
72601;SDS011;60644;55.858;37.390;2023-02-27T06:01:05;5.60;;;1.40;;
72601;SDS011;60644;55.858;37.390;2023-02-27T06:03:33;7.93;;;2.60;;
72601;SDS011;60644;55.858;37.390;2023-02-27T06:06:01;7.00;;;2.20;;
72601;SDS011;60644;55.858;37.390;2023-02-27T06:08:30;7.35;;;2.60;;
72601;SDS011;60644;55.858;37.390;2023-02-27T06:10:56;6.72;;;2.05;;
72601;SDS011;60644;55.858;37.390;2023-02-27T06:13:22;8.13;;;1.98;;
72601;SDS011;60644;55.858;37.390;2023-02-27T06:15:50;7.30;;;2.75;;
72601;SDS011;60644;55.858;37.390;2023-02-27T06:18:17;10.07;;;2.70;;
72601;SDS011;60644;55.858;37.390;2023-02-27T06:20:43;7.65;;;2.55;;
72601;SDS011;60644;55.858;37.390;2023-02-27T06:23:10;7.80;;;2.00;;
72601;SDS011;60644;55.858;37.390;2023-02-27T06:25:36;6.50;;;2.10;;
72601;SDS011;60644;55.858;37.390;2023-02-27T06:28:03;8.20;;;2.25;;
72601;SDS011;60644;55.858;37.390;2023-02-27T06:30:30;6.22;;;2.10;;
72601;SDS011;60644;55.858;37.390;2023-02-27T06:32:56;9.00;;;2.30;;
72601;SDS011;60644;55.858;37.390;2023-02-27T06:35:22;5.18;;;1.88;;
72601;SDS011;60644;55.858;37.390;2023-02-27T06:37:48;6.97;;;2.00;;
72601;SDS011;60644;55.858;37.390;2023-02-27T06:40:14;7.30;;;2.05;;
72601;SDS011;60644;55.858;37.390;2023-02-27T06:42:41;6.10;;;2.00;;
72601;SDS011;60644;55.858;37.390;2023-02-27T06:45:09;7.47;;;2.05;;
72601;SDS011;60644;55.858;37.390;2023-02-27T06:47:38;6.50;;;1.83;;
72601;SDS011;60644;55.858;37.390;2023-02-27T06:50:06;6.63;;;1.95;;
72601;SDS011;60644;55.858;37.390;2023-02-27T06:52:32;6.47;;;1.77;;
72601;SDS011;60644;55.858;37.390;2023-02-27T06:54:58;5.93;;;1.80;;
72601;SDS011;60644;55.858;37.390;2023-02-27T06:57:24;7.10;;;1.83;;
72601;SDS011;60644;55.858;37.390;2023-02-27T06:59:50;7.32;;;2.38;;
72601;SDS011;60644;55.858;37.390;2023-02-27T07:02:16;6.10;;;2.00;;
72601;SDS011;60644;55.858;37.390;2023-02-27T07:04:42;6.53;;;1.92;;
72601;SDS011;60644;55.858;37.390;2023-02-27T07:07:08;6.90;;;2.27;;
72601;SDS011;60644;55.858;37.390;2023-02-27T07:09:35;7.63;;;2.40;;
72601;SDS011;60644;55.858;37.390;2023-02-27T07:12:02;6.55;;;1.80;;
72601;SDS011;60644;55.858;37.390;2023-02-27T07:14:29;7.25;;;1.70;;
72601;SDS011;60644;55.858;37.390;2023-02-27T07:16:55;5.95;;;1.85;;
72601;SDS011;60644;55.858;37.390;2023-02-27T07:19:21;5.03;;;1.33;;
72601;SDS011;60644;55.858;37.390;2023-02-27T07:21:48;8.85;;;1.70;;
72601;SDS011;60644;55.858;37.390;2023-02-27T07:24:14;6.35;;;2.17;;
72601;SDS011;60644;55.858;37.390;2023-02-27T07:26:40;6.22;;;1.50;;
72601;SDS011;60644;55.858;37.390;2023-02-27T07:29:07;6.72;;;2.13;;
72601;SDS011;60644;55.858;37.390;2023-02-27T07:31:34;7.03;;;2.00;;
72601;SDS011;60644;55.858;37.390;2023-02-27T07:34:00;6.30;;;2.22;;
72601;SDS011;60644;55.858;37.390;2023-02-27T07:36:26;6.28;;;1.73;;
72601;SDS011;60644;55.858;37.390;2023-02-27T07:38:51;5.90;;;1.93;;
72601;SDS011;60644;55.858;37.390;2023-02-27T07:41:17;5.95;;;1.63;;
72601;SDS011;60644;55.858;37.390;2023-02-27T07:43:43;5.40;;;1.15;;
72601;SDS011;60644;55.858;37.390;2023-02-27T07:46:09;5.83;;;1.37;;
72601;SDS011;60644;55.858;37.390;2023-02-27T07:48:35;9.48;;;1.98;;
72601;SDS011;60644;55.858;37.390;2023-02-27T07:51:01;6.37;;;1.60;;
72601;SDS011;60644;55.858;37.390;2023-02-27T07:53:27;5.38;;;1.00;;
72601;SDS011;60644;55.858;37.390;2023-02-27T07:55:53;5.32;;;1.52;;
72601;SDS011;60644;55.858;37.390;2023-02-27T07:58:19;4.63;;;1.35;;
72601;SDS011;60644;55.858;37.390;2023-02-27T08:00:45;5.47;;;1.40;;
72601;SDS011;60644;55.858;37.390;2023-02-27T08:03:11;5.65;;;1.50;;
72601;SDS011;60644;55.858;37.390;2023-02-27T08:05:36;5.32;;;1.20;;
72601;SDS011;60644;55.858;37.390;2023-02-27T08:08:02;4.43;;;1.20;;
72601;SDS011;60644;55.858;37.390;2023-02-27T08:10:29;4.95;;;1.40;;
72601;SDS011;60644;55.858;37.390;2023-02-27T08:12:55;5.67;;;1.50;;
72601;SDS011;60644;55.858;37.390;2023-02-27T08:15:21;5.82;;;1.33;;
72601;SDS011;60644;55.858;37.390;2023-02-27T08:17:47;6.13;;;1.25;;
72601;SDS011;60644;55.858;37.390;2023-02-27T08:20:13;5.32;;;1.45;;
72601;SDS011;60644;55.858;37.390;2023-02-27T08:22:39;5.78;;;1.60;;
72601;SDS011;60644;55.858;37.390;2023-02-27T08:25:07;5.65;;;1.50;;
72601;SDS011;60644;55.858;37.390;2023-02-27T08:27:35;5.68;;;1.45;;
72601;SDS011;60644;55.858;37.390;2023-02-27T08:30:03;6.30;;;1.47;;
72601;SDS011;60644;55.858;37.390;2023-02-27T08:32:31;5.90;;;1.38;;
72601;SDS011;60644;55.858;37.390;2023-02-27T08:34:58;5.95;;;1.20;;
72601;SDS011;60644;55.858;37.390;2023-02-27T08:37:23;5.57;;;1.38;;
72601;SDS011;60644;55.858;37.390;2023-02-27T08:39:49;6.25;;;1.52;;
72601;SDS011;60644;55.858;37.390;2023-02-27T08:42:15;6.45;;;1.40;;
72601;SDS011;60644;55.858;37.390;2023-02-27T08:44:41;5.95;;;1.30;;
72601;SDS011;60644;55.858;37.390;2023-02-27T08:47:07;6.72;;;1.65;;
72601;SDS011;60644;55.858;37.390;2023-02-27T08:49:33;5.93;;;1.40;;
72601;SDS011;60644;55.858;37.390;2023-02-27T08:51:59;4.72;;;1.17;;
72601;SDS011;60644;55.858;37.390;2023-02-27T08:54:25;5.93;;;1.33;;
72601;SDS011;60644;55.858;37.390;2023-02-27T08:56:51;5.15;;;1.48;;
72601;SDS011;60644;55.858;37.390;2023-02-27T08:59:17;6.53;;;1.70;;
72601;SDS011;60644;55.858;37.390;2023-02-27T09:01:43;3.75;;;0.82;;
72601;SDS011;60644;55.858;37.390;2023-02-27T09:04:09;3.70;;;0.70;;
72601;SDS011;60644;55.858;37.390;2023-02-27T09:06:36;4.72;;;1.13;;
72601;SDS011;60644;55.858;37.390;2023-02-27T09:09:02;6.75;;;1.80;;
72601;SDS011;60644;55.858;37.390;2023-02-27T09:11:29;5.18;;;1.23;;
72601;SDS011;60644;55.858;37.390;2023-02-27T09:13:55;4.68;;;1.08;;
72601;SDS011;60644;55.858;37.390;2023-02-27T09:16:22;7.03;;;1.03;;
72601;SDS011;60644;55.858;37.390;2023-02-27T09:18:48;4.43;;;1.13;;
72601;SDS011;60644;55.858;37.390;2023-02-27T09:21:14;4.93;;;0.93;;
72601;SDS011;60644;55.858;37.390;2023-02-27T09:23:41;7.63;;;1.73;;
72601;SDS011;60644;55.858;37.390;2023-02-27T09:26:07;4.77;;;1.20;;
72601;SDS011;60644;55.858;37.390;2023-02-27T09:28:34;4.78;;;1.02;;
72601;SDS011;60644;55.858;37.390;2023-02-27T09:31:01;4.82;;;1.00;;
72601;SDS011;60644;55.858;37.390;2023-02-27T09:33:30;4.88;;;1.15;;
72601;SDS011;60644;55.858;37.390;2023-02-27T09:35:57;4.45;;;1.10;;
72601;SDS011;60644;55.858;37.390;2023-02-27T09:38:23;3.37;;;0.90;;
72601;SDS011;60644;55.858;37.390;2023-02-27T09:40:49;4.07;;;0.80;;
72601;SDS011;60644;55.858;37.390;2023-02-27T09:43:21;4.38;;;0.98;;
72601;SDS011;60644;55.858;37.390;2023-02-27T09:45:50;4.80;;;1.10;;
72601;SDS011;60644;55.858;37.390;2023-02-27T09:51:00;4.67;;;1.07;;
72601;SDS011;60644;55.858;37.390;2023-02-27T09:53:40;5.38;;;1.38;;
72601;SDS011;60644;55.858;37.390;2023-02-27T09:59:00;4.45;;;0.70;;
72601;SDS011;60644;55.858;37.390;2023-02-27T10:01:47;4.95;;;1.13;;
72601;SDS011;60644;55.858;37.390;2023-02-27T10:04:25;3.80;;;0.80;;
72601;SDS011;60644;55.858;37.390;2023-02-27T10:07:11;4.45;;;1.00;;
72601;SDS011;60644;55.858;37.390;2023-02-27T10:09:53;6.70;;;0.93;;
72601;SDS011;60644;55.858;37.390;2023-02-27T10:13:26;4.75;;;0.80;;
72601;SDS011;60644;55.858;37.390;2023-02-27T10:15:39;4.68;;;0.93;;
72601;SDS011;60644;55.858;37.390;2023-02-27T10:20:39;5.15;;;1.05;;
72601;SDS011;60644;55.858;37.390;2023-02-27T10:23:20;6.32;;;0.90;;
72601;SDS011;60644;55.858;37.390;2023-02-27T10:25:56;5.13;;;0.85;;
72601;SDS011;60644;55.858;37.390;2023-02-27T10:28:24;5.93;;;1.67;;
72601;SDS011;60644;55.858;37.390;2023-02-27T10:30:52;5.72;;;1.00;;
72601;SDS011;60644;55.858;37.390;2023-02-27T10:33:26;3.85;;;0.90;;
72601;SDS011;60644;55.858;37.390;2023-02-27T10:36:01;3.85;;;0.88;;
72601;SDS011;60644;55.858;37.390;2023-02-27T10:38:31;5.07;;;1.35;;
72601;SDS011;60644;55.858;37.390;2023-02-27T10:40:59;3.73;;;0.73;;
72601;SDS011;60644;55.858;37.390;2023-02-27T10:43:26;4.55;;;0.90;;
72601;SDS011;60644;55.858;37.390;2023-02-27T10:45:52;4.88;;;1.00;;
72601;SDS011;60644;55.858;37.390;2023-02-27T10:48:18;5.05;;;1.40;;
72601;SDS011;60644;55.858;37.390;2023-02-27T10:50:46;6.35;;;1.08;;
72601;SDS011;60644;55.858;37.390;2023-02-27T10:53:26;5.60;;;0.83;;
72601;SDS011;60644;55.858;37.390;2023-02-27T10:56:03;5.10;;;1.05;;
72601;SDS011;60644;55.858;37.390;2023-02-27T10:58:33;5.68;;;1.30;;
72601;SDS011;60644;55.858;37.390;2023-02-27T11:01:01;6.40;;;1.10;;
72601;SDS011;60644;55.858;37.390;2023-02-27T11:03:33;4.40;;;1.15;;
72601;SDS011;60644;55.858;37.390;2023-02-27T11:06:12;5.63;;;1.27;;
72601;SDS011;60644;55.858;37.390;2023-02-27T11:11:43;4.13;;;0.80;;
72601;SDS011;60644;55.858;37.390;2023-02-27T11:14:28;3.10;;;0.60;;
72601;SDS011;60644;55.858;37.390;2023-02-27T11:16:57;3.97;;;0.90;;
72601;SDS011;60644;55.858;37.390;2023-02-27T11:19:29;4.70;;;0.90;;
72601;SDS011;60644;55.858;37.390;2023-02-27T11:22:02;3.15;;;0.70;;
72601;SDS011;60644;55.858;37.390;2023-02-27T11:24:37;4.50;;;0.85;;
72601;SDS011;60644;55.858;37.390;2023-02-27T11:27:05;5.85;;;1.52;;
72601;SDS011;60644;55.858;37.390;2023-02-27T11:29:57;4.10;;;0.83;;
72601;SDS011;60644;55.858;37.390;2023-02-27T11:32:34;4.68;;;1.02;;
72601;SDS011;60644;55.858;37.390;2023-02-27T11:35:18;6.38;;;1.05;;
72601;SDS011;60644;55.858;37.390;2023-02-27T11:37:58;5.55;;;1.13;;
72601;SDS011;60644;55.858;37.390;2023-02-27T11:40:33;5.50;;;1.13;;
72601;SDS011;60644;55.858;37.390;2023-02-27T11:43:25;4.43;;;0.90;;
72601;SDS011;60644;55.858;37.390;2023-02-27T11:45:56;4.60;;;0.98;;
72601;SDS011;60644;55.858;37.390;2023-02-27T11:51:07;6.75;;;1.08;;
72601;SDS011;60644;55.858;37.390;2023-02-27T11:53:46;6.00;;;1.42;;
72601;SDS011;60644;55.858;37.390;2023-02-27T11:56:22;4.60;;;1.10;;
72601;SDS011;60644;55.858;37.390;2023-02-27T12:01:22;5.68;;;1.20;;
72601;SDS011;60644;55.858;37.390;2023-02-27T12:04:08;7.55;;;1.05;;
72601;SDS011;60644;55.858;37.390;2023-02-27T12:06:53;5.20;;;1.10;;
72601;SDS011;60644;55.858;37.390;2023-02-27T12:12:18;4.65;;;0.90;;
72601;SDS011;60644;55.858;37.390;2023-02-27T12:15:52;5.28;;;1.40;;
72601;SDS011;60644;55.858;37.390;2023-02-27T12:17:49;4.45;;;1.00;;
72601;SDS011;60644;55.858;37.390;2023-02-27T12:20:21;5.47;;;1.20;;
72601;SDS011;60644;55.858;37.390;2023-02-27T12:22:50;5.90;;;0.97;;
72601;SDS011;60644;55.858;37.390;2023-02-27T12:25:35;5.10;;;1.33;;
72601;SDS011;60644;55.858;37.390;2023-02-27T12:28:10;3.95;;;1.10;;
72601;SDS011;60644;55.858;37.390;2023-02-27T12:30:51;5.88;;;2.08;;
72601;SDS011;60644;55.858;37.390;2023-02-27T12:33:52;5.05;;;0.98;;
72601;SDS011;60644;55.858;37.390;2023-02-27T12:36:27;4.43;;;1.07;;
72601;SDS011;60644;55.858;37.390;2023-02-27T12:38:54;5.88;;;1.13;;
72601;SDS011;60644;55.858;37.390;2023-02-27T12:44:04;5.05;;;1.00;;
72601;SDS011;60644;55.858;37.390;2023-02-27T12:46:50;5.25;;;1.27;;
72601;SDS011;60644;55.858;37.390;2023-02-27T12:52:09;6.78;;;1.60;;
72601;SDS011;60644;55.858;37.390;2023-02-27T12:57:21;4.72;;;1.25;;
72601;SDS011;60644;55.858;37.390;2023-02-27T12:59:51;4.57;;;0.88;;
72601;SDS011;60644;55.858;37.390;2023-02-27T13:02:38;3.80;;;0.93;;
72601;SDS011;60644;55.858;37.390;2023-02-27T13:13:37;5.53;;;1.80;;
72601;SDS011;60644;55.858;37.390;2023-02-27T13:21:31;5.22;;;1.27;;
72601;SDS011;60644;55.858;37.390;2023-02-27T13:26:29;4.32;;;1.00;;
72601;SDS011;60644;55.858;37.390;2023-02-27T13:29:00;4.90;;;1.30;;
72601;SDS011;60644;55.858;37.390;2023-02-27T13:37:06;5.63;;;1.65;;
72601;SDS011;60644;55.858;37.390;2023-02-27T13:44:59;5.93;;;2.10;;
72601;SDS011;60644;55.858;37.390;2023-02-27T13:52:32;6.43;;;2.33;;
72601;SDS011;60644;55.858;37.390;2023-02-27T13:55:00;6.80;;;2.35;;
72601;SDS011;60644;55.858;37.390;2023-02-27T13:57:31;7.68;;;3.38;;
72601;SDS011;60644;55.858;37.390;2023-02-27T14:00:04;7.80;;;2.42;;
72601;SDS011;60644;55.858;37.390;2023-02-27T14:05:24;5.90;;;1.87;;
72601;SDS011;60644;55.858;37.390;2023-02-27T14:08:04;7.28;;;2.35;;
72601;SDS011;60644;55.858;37.390;2023-02-27T14:10:33;7.72;;;2.35;;
72601;SDS011;60644;55.858;37.390;2023-02-27T14:13:01;8.50;;;2.00;;
72601;SDS011;60644;55.858;37.390;2023-02-27T14:17:58;8.13;;;2.93;;
72601;SDS011;60644;55.858;37.390;2023-02-27T14:25:53;7.55;;;2.17;;
72601;SDS011;60644;55.858;37.390;2023-02-27T14:28:48;7.43;;;2.08;;
72601;SDS011;60644;55.858;37.390;2023-02-27T14:31:29;7.50;;;1.97;;
72601;SDS011;60644;55.858;37.390;2023-02-27T14:33:57;7.70;;;2.17;;
72601;SDS011;60644;55.858;37.390;2023-02-27T14:36:30;6.13;;;1.67;;
72601;SDS011;60644;55.858;37.390;2023-02-27T14:39:00;7.28;;;2.30;;
72601;SDS011;60644;55.858;37.390;2023-02-27T14:44:02;8.37;;;1.97;;
72601;SDS011;60644;55.858;37.390;2023-02-27T14:48:59;8.35;;;2.47;;
72601;SDS011;60644;55.858;37.390;2023-02-27T14:51:28;7.00;;;2.38;;
72601;SDS011;60644;55.858;37.390;2023-02-27T14:54:00;6.60;;;1.80;;
72601;SDS011;60644;55.858;37.390;2023-02-27T14:56:57;7.05;;;2.40;;
72601;SDS011;60644;55.858;37.390;2023-02-27T15:01:56;5.57;;;1.50;;
72601;SDS011;60644;55.858;37.390;2023-02-27T15:04:25;7.32;;;2.30;;
72601;SDS011;60644;55.858;37.390;2023-02-27T15:06:53;5.30;;;1.60;;
72601;SDS011;60644;55.858;37.390;2023-02-27T15:11:52;6.18;;;1.83;;
72601;SDS011;60644;55.858;37.390;2023-02-27T15:14:21;6.78;;;1.75;;
72601;SDS011;60644;55.858;37.390;2023-02-27T15:16:54;7.15;;;2.00;;
72601;SDS011;60644;55.858;37.390;2023-02-27T15:19:21;6.77;;;1.70;;
72601;SDS011;60644;55.858;37.390;2023-02-27T15:21:50;8.20;;;2.05;;
72601;SDS011;60644;55.858;37.390;2023-02-27T15:24:20;6.68;;;2.08;;
72601;SDS011;60644;55.858;37.390;2023-02-27T15:26:55;8.02;;;2.15;;
72601;SDS011;60644;55.858;37.390;2023-02-27T15:29:34;7.85;;;2.33;;
72601;SDS011;60644;55.858;37.390;2023-02-27T15:35:02;6.57;;;1.65;;
72601;SDS011;60644;55.858;37.390;2023-02-27T15:37:31;5.18;;;1.17;;
72601;SDS011;60644;55.858;37.390;2023-02-27T15:39:58;6.28;;;1.90;;
72601;SDS011;60644;55.858;37.390;2023-02-27T15:42:26;8.50;;;2.30;;
72601;SDS011;60644;55.858;37.390;2023-02-27T15:44:56;6.73;;;1.70;;
72601;SDS011;60644;55.858;37.390;2023-02-27T15:47:23;6.22;;;1.75;;
72601;SDS011;60644;55.858;37.390;2023-02-27T15:49:59;7.18;;;2.33;;
72601;SDS011;60644;55.858;37.390;2023-02-27T15:52:40;7.25;;;1.80;;
72601;SDS011;60644;55.858;37.390;2023-02-27T15:55:15;7.65;;;1.98;;
72601;SDS011;60644;55.858;37.390;2023-02-27T15:57:46;7.50;;;2.13;;
72601;SDS011;60644;55.858;37.390;2023-02-27T16:00:12;7.93;;;2.22;;
72601;SDS011;60644;55.858;37.390;2023-02-27T16:02:43;6.03;;;1.67;;
72601;SDS011;60644;55.858;37.390;2023-02-27T16:05:16;6.50;;;1.85;;
72601;SDS011;60644;55.858;37.390;2023-02-27T16:07:49;6.77;;;1.80;;
72601;SDS011;60644;55.858;37.390;2023-02-27T16:10:17;5.80;;;1.58;;
72601;SDS011;60644;55.858;37.390;2023-02-27T16:12:46;7.05;;;1.98;;
72601;SDS011;60644;55.858;37.390;2023-02-27T16:15:18;6.57;;;1.75;;
72601;SDS011;60644;55.858;37.390;2023-02-27T16:18:04;6.68;;;2.03;;
72601;SDS011;60644;55.858;37.390;2023-02-27T16:20:52;6.67;;;1.93;;
72601;SDS011;60644;55.858;37.390;2023-02-27T16:23:32;7.70;;;1.90;;
72601;SDS011;60644;55.858;37.390;2023-02-27T16:26:20;7.38;;;1.92;;
72601;SDS011;60644;55.858;37.390;2023-02-27T16:28:58;5.43;;;1.58;;
72601;SDS011;60644;55.858;37.390;2023-02-27T16:31:29;5.97;;;1.90;;
72601;SDS011;60644;55.858;37.390;2023-02-27T16:34:01;6.10;;;1.50;;
72601;SDS011;60644;55.858;37.390;2023-02-27T16:36:52;6.07;;;1.45;;
72601;SDS011;60644;55.858;37.390;2023-02-27T16:39:20;6.82;;;2.08;;
72601;SDS011;60644;55.858;37.390;2023-02-27T16:41:46;5.95;;;1.67;;
72601;SDS011;60644;55.858;37.390;2023-02-27T16:44:12;6.73;;;2.00;;
72601;SDS011;60644;55.858;37.390;2023-02-27T16:46:38;5.63;;;1.88;;
72601;SDS011;60644;55.858;37.390;2023-02-27T16:49:04;5.45;;;1.60;;
72601;SDS011;60644;55.858;37.390;2023-02-27T16:51:30;6.77;;;1.70;;
72601;SDS011;60644;55.858;37.390;2023-02-27T16:53:57;6.60;;;1.80;;
72601;SDS011;60644;55.858;37.390;2023-02-27T16:56:24;7.78;;;1.80;;
72601;SDS011;60644;55.858;37.390;2023-02-27T16:58:51;5.72;;;0.98;;
72601;SDS011;60644;55.858;37.390;2023-02-27T17:01:18;6.47;;;1.73;;
72601;SDS011;60644;55.858;37.390;2023-02-27T17:03:44;5.95;;;2.10;;
72601;SDS011;60644;55.858;37.390;2023-02-27T17:06:11;5.75;;;1.83;;
72601;SDS011;60644;55.858;37.390;2023-02-27T17:08:39;5.38;;;1.50;;
72601;SDS011;60644;55.858;37.390;2023-02-27T17:11:07;6.53;;;1.88;;
72601;SDS011;60644;55.858;37.390;2023-02-27T17:13:33;6.83;;;1.70;;
72601;SDS011;60644;55.858;37.390;2023-02-27T17:16:01;5.25;;;1.08;;
72601;SDS011;60644;55.858;37.390;2023-02-27T17:18:27;6.63;;;1.58;;
72601;SDS011;60644;55.858;37.390;2023-02-27T17:20:53;6.88;;;1.90;;
72601;SDS011;60644;55.858;37.390;2023-02-27T17:23:21;4.87;;;1.10;;
72601;SDS011;60644;55.858;37.390;2023-02-27T17:25:48;6.18;;;1.30;;
72601;SDS011;60644;55.858;37.390;2023-02-27T17:28:13;6.75;;;1.60;;
72601;SDS011;60644;55.858;37.390;2023-02-27T17:30:40;5.50;;;1.42;;
72601;SDS011;60644;55.858;37.390;2023-02-27T17:33:06;3.90;;;0.90;;
72601;SDS011;60644;55.858;37.390;2023-02-27T17:35:32;4.07;;;0.88;;
72601;SDS011;60644;55.858;37.390;2023-02-27T17:37:58;4.55;;;1.00;;
72601;SDS011;60644;55.858;37.390;2023-02-27T17:40:24;5.50;;;0.95;;
72601;SDS011;60644;55.858;37.390;2023-02-27T17:42:50;5.70;;;1.13;;